Time;durP1;ratioP1;P1;durP2;ratioP2;P2;SDS_P1;SDS_P2;PMS_P1;PMS_P2;Temp;Humidity;BMP_temperature;BMP_pressure;BME280_temperature;BME280_humidity;BME280_pressure;Samples;Min_cycle;Max_cycle;Signal;HPM_P1;HPM_P2
2021/09/24 00:00:45;;;;;;;18.70;15.97;;;16.10;99.90;;;;;;4997645;28;20734;-70
2021/09/24 00:03:11;;;;;;;18.23;16.20;;;16.10;99.90;;;;;;4995464;28;20582;-70
2021/09/24 00:05:37;;;;;;;16.87;15.00;;;16.10;99.90;;;;;;4994326;28;20219;-69
2021/09/24 00:08:02;;;;;;;19.23;14.13;;;16.20;99.90;;;;;;4994107;28;20215;-69
2021/09/24 00:10:28;;;;;;;16.70;14.33;;;16.20;99.90;;;;;;4997394;28;20177;-69
2021/09/24 00:12:53;;;;;;;19.60;15.70;;;16.20;99.90;;;;;;4996190;28;20275;-69
2021/09/24 00:15:19;;;;;;;21.10;15.50;;;16.20;99.90;;;;;;4995973;28;20168;-70
2021/09/24 00:17:45;;;;;;;18.90;16.90;;;16.20;99.90;;;;;;4994705;28;20227;-70
2021/09/24 00:20:11;;;;;;;23.67;16.80;;;16.20;99.90;;;;;;4995241;28;20709;-70
2021/09/24 00:22:37;;;;;;;23.48;19.80;;;16.10;99.90;;;;;;4993918;28;20770;-70
2021/09/24 00:25:03;;;;;;;25.33;18.60;;;16.20;99.90;;;;;;4995590;28;20175;-70
2021/09/24 00:27:29;;;;;;;23.33;17.50;;;16.20;99.90;;;;;;4995389;28;20246;-71
2021/09/24 00:29:54;;;;;;;21.50;19.03;;;16.20;99.90;;;;;;4995906;28;20407;-70
2021/09/24 00:32:23;;;;;;;20.27;17.30;;;16.30;99.90;;;;;;4996421;28;20175;-71
2021/09/24 00:34:49;;;;;;;23.40;16.93;;;16.30;99.90;;;;;;4997021;28;20533;-70
2021/09/24 00:37:15;;;;;;;22.30;18.00;;;16.30;99.90;;;;;;5005361;28;20444;-70
2021/09/24 00:39:40;;;;;;;24.27;18.23;;;16.20;99.90;;;;;;5009837;28;20419;-70
2021/09/24 00:42:06;;;;;;;23.53;19.10;;;16.30;99.90;;;;;;5000465;28;20176;-69
2021/09/24 00:44:48;;;;;;;22.57;20.20;;;16.30;99.90;;;;;;5012535;28;20227;-70
2021/09/24 00:47:15;;;;;;;23.87;21.27;;;16.30;99.90;;;;;;5014769;28;20199;-70
2021/09/24 00:49:41;;;;;;;27.27;22.57;;;16.30;99.90;;;;;;5000401;28;20432;-70
2021/09/24 00:52:07;;;;;;;26.60;20.93;;;16.20;99.90;;;;;;4996092;28;20417;-70
2021/09/24 00:54:33;;;;;;;29.30;22.57;;;16.30;99.90;;;;;;4994256;28;20424;-70
2021/09/24 00:57:00;;;;;;;25.40;20.13;;;16.20;99.90;;;;;;4994824;28;20419;-69
2021/09/24 00:59:26;;;;;;;25.17;18.87;;;16.20;99.90;;;;;;4995131;28;20588;-70
2021/09/24 01:01:51;;;;;;;25.40;19.43;;;16.30;99.90;;;;;;4994851;28;20419;-70
2021/09/24 01:04:17;;;;;;;22.07;17.87;;;16.30;99.90;;;;;;4994253;28;20215;-70
2021/09/24 01:06:42;;;;;;;21.03;17.97;;;16.30;99.90;;;;;;4994052;28;20234;-70
2021/09/24 01:09:08;;;;;;;19.97;17.47;;;16.30;99.90;;;;;;4994623;28;20294;-70
2021/09/24 01:11:36;;;;;;;19.43;17.27;;;16.20;99.90;;;;;;4994413;28;20272;-71
2021/09/24 01:14:05;;;;;;;18.63;16.73;;;16.30;99.90;;;;;;4993978;28;20912;-69
2021/09/24 01:16:31;;;;;;;19.70;15.97;;;16.30;99.90;;;;;;4995135;28;20517;-70
2021/09/24 01:18:57;;;;;;;20.97;16.23;;;16.20;99.90;;;;;;4994727;28;20522;-70
2021/09/24 01:21:24;;;;;;;19.20;17.20;;;16.20;99.90;;;;;;4994352;28;20415;-70
2021/09/24 01:23:49;;;;;;;17.83;15.93;;;16.20;99.90;;;;;;4994060;28;20258;-71
2021/09/24 01:26:15;;;;;;;22.23;17.27;;;16.20;99.90;;;;;;4994042;28;20490;-69
2021/09/24 01:28:44;;;;;;;21.83;17.10;;;16.20;99.90;;;;;;4994090;28;20208;-70
2021/09/24 01:31:11;;;;;;;20.00;16.20;;;16.20;99.90;;;;;;4994440;28;20415;-70
2021/09/24 01:33:37;;;;;;;21.73;17.73;;;16.20;99.90;;;;;;4994063;28;20772;-70
2021/09/24 01:36:03;;;;;;;25.17;19.90;;;16.20;99.90;;;;;;4996142;28;20521;-70
2021/09/24 01:38:28;;;;;;;26.83;20.37;;;16.20;99.90;;;;;;4998114;28;20446;-72
2021/09/24 01:40:54;;;;;;;23.93;20.57;;;16.20;99.90;;;;;;4991909;28;20215;-70
2021/09/24 01:43:19;;;;;;;30.10;24.30;;;16.20;99.90;;;;;;4992042;28;20914;-71
2021/09/24 01:45:45;;;;;;;30.80;22.93;;;16.10;99.90;;;;;;4997883;28;20254;-71
2021/09/24 01:48:10;;;;;;;29.13;23.80;;;16.10;99.90;;;;;;4998458;28;20210;-70
2021/09/24 01:50:36;;;;;;;25.47;22.00;;;16.10;99.90;;;;;;4997831;28;20278;-70
2021/09/24 01:53:02;;;;;;;26.47;21.93;;;16.10;99.90;;;;;;4998516;28;20183;-69
2021/09/24 01:55:27;;;;;;;27.50;23.60;;;16.10;99.90;;;;;;4999055;28;20180;-71
2021/09/24 01:57:53;;;;;;;28.37;23.13;;;16.20;99.90;;;;;;4998966;28;20283;-70
2021/09/24 02:00:20;;;;;;;31.50;23.10;;;16.10;99.90;;;;;;4998005;28;20446;-70
2021/09/24 02:02:45;;;;;;;25.30;22.20;;;16.10;99.90;;;;;;4998047;28;20455;-70
2021/09/24 02:05:11;;;;;;;27.43;23.10;;;16.20;99.90;;;;;;4997510;28;20194;-71
2021/09/24 02:07:36;;;;;;;26.93;21.23;;;16.20;99.90;;;;;;4997062;28;20200;-70
2021/09/24 02:10:04;;;;;;;30.13;24.53;;;16.20;99.90;;;;;;4998399;28;20593;-70
2021/09/24 02:12:30;;;;;;;28.37;22.87;;;16.10;99.90;;;;;;4997759;28;20203;-69
2021/09/24 02:14:55;;;;;;;33.47;23.47;;;16.10;99.90;;;;;;4997180;28;20470;-70
2021/09/24 02:17:21;;;;;;;31.47;24.80;;;16.10;99.90;;;;;;4997131;28;20243;-70
2021/09/24 02:19:46;;;;;;;27.90;23.40;;;16.00;99.90;;;;;;4997108;28;20238;-69
2021/09/24 02:22:12;;;;;;;30.57;24.70;;;16.10;99.90;;;;;;4997561;28;20584;-70
2021/09/24 02:24:37;;;;;;;32.70;26.00;;;16.00;99.90;;;;;;4997771;28;20210;-70
2021/09/24 02:27:03;;;;;;;30.60;24.63;;;16.10;99.90;;;;;;4997327;28;20176;-70
2021/09/24 02:29:29;;;;;;;33.30;26.40;;;16.10;99.90;;;;;;4997320;28;20211;-70
2021/09/24 02:31:54;;;;;;;33.30;27.20;;;16.10;99.90;;;;;;4997001;28;20553;-70
2021/09/24 02:34:21;;;;;;;31.90;26.30;;;16.10;99.90;;;;;;4997577;28;20282;-70
2021/09/24 02:36:47;;;;;;;33.30;26.00;;;16.10;99.90;;;;;;4997203;28;20189;-70
2021/09/24 02:39:13;;;;;;;37.73;26.07;;;16.00;99.90;;;;;;4995755;28;20424;-71
2021/09/24 02:41:39;;;;;;;36.10;24.33;;;16.00;99.90;;;;;;4997453;28;20411;-70
2021/09/24 02:44:06;;;;;;;31.10;25.27;;;16.00;99.90;;;;;;4997022;28;20459;-70
2021/09/24 02:46:31;;;;;;;31.33;23.27;;;15.90;99.90;;;;;;4996436;28;20805;-70
2021/09/24 02:48:57;;;;;;;33.70;23.00;;;15.90;99.90;;;;;;4999621;28;20457;-70
2021/09/24 02:51:23;;;;;;;31.57;24.63;;;16.00;99.90;;;;;;4999210;28;20255;-71
2021/09/24 02:53:48;;;;;;;34.73;23.77;;;16.00;99.90;;;;;;4997541;28;20188;-70
2021/09/24 02:56:14;;;;;;;27.10;21.33;;;16.00;99.90;;;;;;5000183;28;20172;-70
2021/09/24 02:58:39;;;;;;;31.30;22.37;;;16.10;99.90;;;;;;4996955;28;20193;-70
2021/09/24 03:01:05;;;;;;;32.60;22.90;;;16.10;99.90;;;;;;4996366;28;20172;-70
2021/09/24 03:03:30;;;;;;;31.93;23.70;;;16.10;99.90;;;;;;4994832;28;20692;-70
2021/09/24 03:05:56;;;;;;;34.57;24.00;;;16.10;99.90;;;;;;4996585;28;20175;-72
2021/09/24 03:08:21;;;;;;;34.20;24.10;;;16.20;99.90;;;;;;4996679;28;20184;-70
2021/09/24 03:10:47;;;;;;;39.53;23.50;;;16.20;99.90;;;;;;4995987;28;20227;-70
2021/09/24 03:13:12;;;;;;;30.50;22.00;;;16.20;99.90;;;;;;4996771;28;20491;-70
2021/09/24 03:15:38;;;;;;;33.60;23.20;;;16.20;99.90;;;;;;4996907;28;20529;-71
2021/09/24 03:18:03;;;;;;;35.60;23.80;;;16.20;99.90;;;;;;4997862;28;20631;-70
2021/09/24 03:20:29;;;;;;;37.37;24.47;;;16.20;99.90;;;;;;4997162;28;20251;-70
2021/09/24 03:22:55;;;;;;;35.70;24.40;;;16.20;99.90;;;;;;4996836;28;20212;-70
2021/09/24 03:25:21;;;;;;;34.77;24.20;;;16.20;99.90;;;;;;4997712;28;20211;-70
2021/09/24 03:27:47;;;;;;;31.20;23.00;;;16.20;99.90;;;;;;4996649;28;20427;-70
2021/09/24 03:30:14;;;;;;;31.00;23.20;;;16.20;99.90;;;;;;4983983;28;20431;-70
2021/09/24 03:32:40;;;;;;;34.83;24.70;;;16.30;99.90;;;;;;4983232;28;20444;-72
2021/09/24 03:35:06;;;;;;;36.40;24.40;;;16.30;99.90;;;;;;4995804;28;20431;-70
2021/09/24 03:37:32;;;;;;;46.23;27.17;;;16.30;99.90;;;;;;4995983;28;20239;-70
2021/09/24 03:39:58;;;;;;;36.43;26.30;;;16.20;99.90;;;;;;4995402;28;20782;-70
2021/09/24 03:42:23;;;;;;;35.83;25.50;;;16.20;99.90;;;;;;4995871;28;20559;-70
2021/09/24 03:44:49;;;;;;;36.23;25.03;;;16.20;99.90;;;;;;4996063;28;20207;-70
2021/09/24 03:47:15;;;;;;;39.27;26.03;;;16.20;99.90;;;;;;4996009;28;20212;-70
2021/09/24 03:49:40;;;;;;;37.90;26.03;;;16.20;99.90;;;;;;4996958;28;20191;-70
2021/09/24 03:52:06;;;;;;;42.20;27.80;;;16.20;99.90;;;;;;4996187;28;20176;-70
2021/09/24 03:54:32;;;;;;;39.27;26.10;;;16.20;99.90;;;;;;4997497;28;20180;-70
2021/09/24 03:56:57;;;;;;;41.70;29.30;;;16.20;99.90;;;;;;5002619;28;20176;-71
2021/09/24 03:59:23;;;;;;;38.23;28.73;;;16.20;99.90;;;;;;5015679;28;20172;-70
2021/09/24 04:01:49;;;;;;;41.83;27.73;;;16.20;99.90;;;;;;5002581;28;20276;-70
2021/09/24 04:04:14;;;;;;;38.33;28.13;;;16.20;99.90;;;;;;5009248;28;20207;-70
2021/09/24 04:06:40;;;;;;;42.00;28.27;;;16.20;99.90;;;;;;5018003;28;20172;-70
2021/09/24 04:09:05;;;;;;;42.23;27.57;;;16.20;99.90;;;;;;5012102;28;20196;-69
2021/09/24 04:11:31;;;;;;;45.63;30.70;;;16.20;99.90;;;;;;4995920;28;20172;-70
2021/09/24 04:13:56;;;;;;;43.20;30.10;;;16.20;99.90;;;;;;4996066;28;20176;-69
2021/09/24 04:16:22;;;;;;;40.27;28.40;;;16.20;99.90;;;;;;4995257;28;20192;-70
2021/09/24 04:18:48;;;;;;;39.67;27.50;;;16.10;99.90;;;;;;4995820;28;20196;-69
2021/09/24 04:21:14;;;;;;;46.40;30.90;;;16.20;99.90;;;;;;4995415;28;20178;-69
2021/09/24 04:23:40;;;;;;;47.13;29.87;;;16.20;99.90;;;;;;4995137;28;20204;-69
2021/09/24 04:26:05;;;;;;;41.07;29.33;;;16.20;99.90;;;;;;4995227;28;20422;-70
2021/09/24 04:28:31;;;;;;;44.20;28.90;;;16.20;99.90;;;;;;4994425;28;20439;-70
2021/09/24 04:30:57;;;;;;;42.10;29.33;;;16.20;99.90;;;;;;4990882;28;20291;-70
2021/09/24 04:33:23;;;;;;;47.80;28.67;;;16.20;99.90;;;;;;4984254;28;20271;-69
2021/09/24 04:35:49;;;;;;;47.23;30.70;;;16.20;99.90;;;;;;4975116;28;20854;-69
2021/09/24 04:38:14;;;;;;;48.10;30.10;;;16.20;99.90;;;;;;4987144;28;20570;-70
2021/09/24 04:40:41;;;;;;;56.50;32.73;;;16.10;99.90;;;;;;4992229;28;20198;-69
2021/09/24 04:43:06;;;;;;;49.77;30.97;;;16.10;99.90;;;;;;4989546;28;20227;-70
2021/09/24 04:45:33;;;;;;;49.23;29.40;;;16.10;99.90;;;;;;4994803;28;20787;-69
2021/09/24 04:47:58;;;;;;;50.10;29.80;;;16.10;99.90;;;;;;4994942;28;20431;-70
2021/09/24 04:50:24;;;;;;;43.57;29.03;;;16.10;99.90;;;;;;4993501;28;20439;-70
2021/09/24 04:52:50;;;;;;;48.27;29.30;;;16.20;99.90;;;;;;4988318;28;20255;-69
2021/09/24 04:55:15;;;;;;;46.17;29.20;;;16.10;99.90;;;;;;4995020;28;20262;-70
2021/09/24 04:57:41;;;;;;;48.70;29.40;;;16.20;99.90;;;;;;4990999;28;20205;-70
2021/09/24 05:00:09;;;;;;;48.90;30.30;;;16.20;99.90;;;;;;4989913;28;20195;-71
2021/09/24 05:02:35;;;;;;;47.33;28.13;;;16.20;99.90;;;;;;4986461;28;20204;-70
2021/09/24 05:05:01;;;;;;;46.30;31.13;;;16.10;99.90;;;;;;4990996;28;20434;-70
2021/09/24 05:07:26;;;;;;;46.47;29.47;;;16.10;99.90;;;;;;4994242;28;20206;-71
2021/09/24 05:09:52;;;;;;;46.97;30.57;;;16.10;99.90;;;;;;4974812;28;20533;-70
2021/09/24 05:12:17;;;;;;;51.80;30.53;;;16.10;99.90;;;;;;4989156;28;20603;-70
2021/09/24 05:14:43;;;;;;;51.13;30.90;;;16.10;99.90;;;;;;4987000;28;20239;-69
2021/09/24 05:17:09;;;;;;;50.77;30.77;;;16.00;99.90;;;;;;4987977;28;20212;-70
2021/09/24 05:19:34;;;;;;;49.43;30.17;;;16.10;99.90;;;;;;4989235;28;20294;-69
2021/09/24 05:22:00;;;;;;;47.97;30.97;;;16.10;99.90;;;;;;4989430;28;20234;-69
2021/09/24 05:24:26;;;;;;;51.37;32.00;;;16.10;99.90;;;;;;4983121;28;20228;-68
2021/09/24 05:26:51;;;;;;;55.67;33.70;;;16.00;99.90;;;;;;4985693;28;20215;-71
2021/09/24 05:29:17;;;;;;;50.00;32.70;;;16.00;99.90;;;;;;4985298;28;20220;-71
2021/09/24 05:31:42;;;;;;;54.80;31.00;;;16.00;99.90;;;;;;4987232;28;20239;-70
2021/09/24 05:34:08;;;;;;;51.93;32.83;;;16.00;99.90;;;;;;4975905;28;20231;-71
2021/09/24 05:36:34;;;;;;;51.73;33.80;;;16.00;99.90;;;;;;4981443;28;20689;-71
2021/09/24 05:38:59;;;;;;;55.60;33.00;;;15.90;99.90;;;;;;4987278;28;20220;-72
2021/09/24 05:41:25;;;;;;;54.97;33.63;;;16.00;99.90;;;;;;4989397;28;20216;-70
2021/09/24 05:43:51;;;;;;;54.70;33.70;;;16.00;99.90;;;;;;4989875;28;20310;-70
2021/09/24 05:46:17;;;;;;;52.27;32.70;;;16.00;99.90;;;;;;4991567;28;20204;-70
2021/09/24 05:48:43;;;;;;;55.70;34.07;;;16.00;99.90;;;;;;4990237;28;20235;-74
2021/09/24 05:51:09;;;;;;;59.27;36.47;;;16.00;99.90;;;;;;4990308;28;20458;-71
2021/09/24 05:53:35;;;;;;;63.07;35.57;;;16.10;99.90;;;;;;4989322;28;20212;-71
2021/09/24 05:56:02;;;;;;;67.13;37.60;;;16.00;99.90;;;;;;4991637;28;20403;-70
2021/09/24 05:58:27;;;;;;;55.57;36.50;;;16.00;99.90;;;;;;4991022;28;20447;-70
2021/09/24 06:00:53;;;;;;;64.57;39.73;;;16.00;99.90;;;;;;4993577;28;20431;-69
2021/09/24 06:03:18;;;;;;;58.07;35.33;;;16.00;99.90;;;;;;4995684;28;20211;-70
2021/09/24 06:05:44;;;;;;;61.67;35.33;;;16.00;99.90;;;;;;4994408;28;20219;-71
2021/09/24 06:08:09;;;;;;;56.70;34.67;;;15.90;99.90;;;;;;4996074;28;20273;-70
2021/09/24 06:10:38;;;;;;;57.37;37.00;;;16.00;99.90;;;;;;4995852;28;20161;-70
2021/09/24 06:13:04;;;;;;;65.87;36.33;;;16.00;99.90;;;;;;4994436;28;20222;-70
2021/09/24 06:15:30;;;;;;;63.03;38.73;;;16.00;99.90;;;;;;4993856;28;20951;-69
2021/09/24 06:17:55;;;;;;;57.50;35.17;;;15.90;99.90;;;;;;4994470;28;20435;-71
2021/09/24 06:20:21;;;;;;;58.53;36.00;;;15.90;99.90;;;;;;4994618;28;20572;-69
2021/09/24 06:22:48;;;;;;;58.07;35.77;;;15.90;99.90;;;;;;4997551;28;20688;-70
2021/09/24 06:25:14;;;;;;;62.57;36.83;;;15.90;99.90;;;;;;4998496;28;20188;-70
2021/09/24 06:27:40;;;;;;;60.70;35.90;;;15.90;99.90;;;;;;4997496;28;20423;-69
2021/09/24 06:30:08;;;;;;;58.27;35.30;;;15.90;99.90;;;;;;4997369;28;20427;-70
2021/09/24 06:32:34;;;;;;;55.73;35.43;;;15.90;99.90;;;;;;4997950;28;20218;-69
2021/09/24 06:35:00;;;;;;;51.97;33.90;;;15.90;99.90;;;;;;4996255;28;20416;-70
2021/09/24 06:37:26;;;;;;;57.87;35.30;;;15.90;99.90;;;;;;4996989;28;20478;-70
2021/09/24 06:39:51;;;;;;;52.80;33.00;;;15.80;99.90;;;;;;4997267;28;20252;-71
2021/09/24 06:42:17;;;;;;;57.47;34.97;;;15.80;99.90;;;;;;4998773;28;20168;-70
2021/09/24 06:44:43;;;;;;;55.47;33.70;;;15.90;99.90;;;;;;4998398;28;20191;-70
2021/09/24 06:47:09;;;;;;;52.57;32.50;;;15.80;99.90;;;;;;4996818;28;20206;-71
2021/09/24 06:49:35;;;;;;;50.43;33.13;;;15.90;99.90;;;;;;4996970;28;20526;-70
2021/09/24 06:52:02;;;;;;;50.67;31.77;;;15.80;99.90;;;;;;4997316;28;20419;-70
2021/09/24 06:54:28;;;;;;;52.40;33.20;;;15.90;99.90;;;;;;4997318;28;20804;-70
2021/09/24 06:56:54;;;;;;;50.40;32.50;;;15.90;99.90;;;;;;4997283;28;20430;-70
2021/09/24 06:59:19;;;;;;;44.47;31.03;;;15.80;99.90;;;;;;4998257;28;20231;-68
2021/09/24 07:01:45;;;;;;;44.77;31.00;;;15.80;99.90;;;;;;4997486;28;20700;-69
2021/09/24 07:04:12;;;;;;;41.77;28.57;;;15.80;99.90;;;;;;4998291;28;20231;-69
2021/09/24 07:06:38;;;;;;;44.47;30.77;;;15.80;99.90;;;;;;4997192;28;20168;-70
2021/09/24 07:09:07;;;;;;;47.63;29.47;;;15.80;99.90;;;;;;4997126;28;20835;-70
2021/09/24 07:11:34;;;;;;;41.97;28.77;;;15.70;99.90;;;;;;4998652;28;20431;-71
2021/09/24 07:13:59;;;;;;;40.70;28.27;;;15.70;99.90;;;;;;4999457;28;20399;-72
2021/09/24 07:16:25;;;;;;;41.30;28.40;;;15.70;99.90;;;;;;5000474;28;20458;-71
2021/09/24 07:18:51;;;;;;;37.90;27.57;;;15.70;99.90;;;;;;5006109;28;20196;-70
2021/09/24 07:21:16;;;;;;;42.37;29.60;;;15.70;99.90;;;;;;5006450;28;20841;-70
2021/09/24 07:23:42;;;;;;;46.00;29.30;;;15.60;99.90;;;;;;5000512;28;20597;-71
2021/09/24 07:26:08;;;;;;;36.50;25.70;;;15.60;99.90;;;;;;5007121;28;20679;-71
2021/09/24 07:28:33;;;;;;;41.43;29.20;;;15.70;99.90;;;;;;5010691;28;20451;-71
2021/09/24 07:30:59;;;;;;;41.53;28.10;;;15.70;99.90;;;;;;5002738;28;20248;-70
2021/09/24 07:33:25;;;;;;;37.50;27.70;;;15.80;99.90;;;;;;4995362;28;20187;-68
2021/09/24 07:35:51;;;;;;;37.17;28.30;;;15.80;99.90;;;;;;5002571;28;20280;-69
2021/09/24 07:38:18;;;;;;;39.47;28.20;;;15.90;99.90;;;;;;4997273;28;20463;-70
2021/09/24 07:40:47;;;;;;;35.60;26.27;;;15.90;99.90;;;;;;4997303;28;20176;-70
2021/09/24 07:43:14;;;;;;;45.63;28.73;;;15.90;99.90;;;;;;4997191;28;20888;-70
2021/09/24 07:45:41;;;;;;;35.80;28.13;;;15.90;99.90;;;;;;4996081;28;20411;-69
2021/09/24 07:48:07;;;;;;;39.37;27.60;;;15.80;99.90;;;;;;4995286;28;20447;-69
2021/09/24 07:50:33;;;;;;;36.43;28.17;;;15.90;99.90;;;;;;4996867;28;20439;-69
2021/09/24 07:52:58;;;;;;;33.50;25.00;;;15.90;99.90;;;;;;4996151;28;20495;-69
2021/09/24 07:55:24;;;;;;;32.27;25.03;;;15.80;99.90;;;;;;4996464;28;20168;-73
2021/09/24 07:57:55;;;;;;;34.43;24.80;;;15.80;99.90;;;;;;4995617;28;20204;-70
2021/09/24 08:00:22;;;;;;;31.53;23.80;;;15.90;99.90;;;;;;4995949;28;20268;-69
2021/09/24 08:02:49;;;;;;;32.10;24.20;;;15.90;99.90;;;;;;4998866;28;20443;-69
2021/09/24 08:05:14;;;;;;;32.50;23.90;;;16.00;99.90;;;;;;4996116;28;20415;-70
2021/09/24 08:07:40;;;;;;;37.37;24.60;;;16.00;99.90;;;;;;4995468;28;20435;-70
2021/09/24 08:10:06;;;;;;;33.90;26.33;;;16.00;99.90;;;;;;4995781;28;20765;-70
2021/09/24 08:12:31;;;;;;;34.20;25.00;;;16.00;99.90;;;;;;4996942;28;20168;-70
2021/09/24 08:14:57;;;;;;;32.63;24.27;;;15.90;99.90;;;;;;4996086;28;20431;-70
2021/09/24 08:17:22;;;;;;;34.77;23.10;;;15.90;99.90;;;;;;4996767;28;20192;-69
2021/09/24 08:19:48;;;;;;;35.93;24.60;;;15.90;99.90;;;;;;4995087;28;20230;-69
2021/09/24 08:22:13;;;;;;;31.67;21.67;;;15.90;99.90;;;;;;4996773;28;20255;-70
2021/09/24 08:24:39;;;;;;;33.43;25.23;;;16.00;99.90;;;;;;4996812;28;20210;-70
2021/09/24 08:27:05;;;;;;;33.77;24.77;;;15.90;99.90;;;;;;4997846;28;20204;-70
2021/09/24 08:29:31;;;;;;;35.30;25.60;;;16.00;99.90;;;;;;4996488;28;20259;-71
2021/09/24 08:31:56;;;;;;;34.80;26.33;;;16.00;99.90;;;;;;4995365;28;20168;-70
2021/09/24 08:34:22;;;;;;;33.17;25.73;;;16.10;99.90;;;;;;4995825;28;20202;-69
2021/09/24 08:36:48;;;;;;;33.37;26.03;;;16.10;99.90;;;;;;4995448;28;20177;-71
2021/09/24 08:39:13;;;;;;;37.63;27.13;;;16.20;99.90;;;;;;4995328;28;20541;-70
2021/09/24 08:41:39;;;;;;;37.90;25.73;;;16.30;99.90;;;;;;4995798;28;20188;-69
2021/09/24 08:44:05;;;;;;;33.63;24.77;;;16.20;99.90;;;;;;4995340;28;20203;-69
2021/09/24 08:46:34;;;;;;;39.50;25.77;;;16.20;99.90;;;;;;4996109;28;20987;-69
2021/09/24 08:49:04;;;;;;;32.77;25.40;;;16.30;99.90;;;;;;4996884;28;20197;-70
2021/09/24 08:51:30;;;;;;;34.03;24.47;;;16.20;99.90;;;;;;4997243;28;20403;-70
2021/09/24 08:53:56;;;;;;;39.07;25.70;;;16.30;99.90;;;;;;4995114;28;20493;-70
2021/09/24 08:56:21;;;;;;;39.60;26.80;;;16.30;99.90;;;;;;4994491;28;20410;-71
2021/09/24 08:58:47;;;;;;;34.23;25.17;;;16.40;99.90;;;;;;4994807;28;20191;-70
2021/09/24 09:01:13;;;;;;;38.17;26.03;;;16.40;99.90;;;;;;4994995;28;20180;-71
2021/09/24 09:03:44;;;;;;;40.03;29.70;;;16.30;99.90;;;;;;4994251;28;20275;-71
2021/09/24 09:06:13;;;;;;;38.40;29.33;;;16.40;99.90;;;;;;4994348;28;20178;-70
2021/09/24 09:08:38;;;;;;;37.50;28.67;;;16.30;99.90;;;;;;4995356;28;20423;-70
2021/09/24 09:11:07;;;;;;;40.57;27.57;;;16.40;99.90;;;;;;4994699;28;20410;-70
2021/09/24 09:13:39;;;;;;;37.60;27.67;;;16.50;99.90;;;;;;4994715;28;20179;-70
2021/09/24 09:16:17;;;;;;;37.83;28.37;;;16.60;99.90;;;;;;4994188;28;20443;-70
2021/09/24 09:18:45;;;;;;;37.37;28.10;;;16.60;99.90;;;;;;4995712;28;20515;-70
2021/09/24 09:21:16;;;;;;;38.17;29.57;;;16.60;99.90;;;;;;4994316;28;20408;-71
2021/09/24 09:23:48;;;;;;;39.67;29.47;;;16.60;99.90;;;;;;4994217;28;20451;-70
2021/09/24 09:26:16;;;;;;;39.57;28.00;;;16.60;99.90;;;;;;4994523;28;20592;-70
2021/09/24 09:28:48;;;;;;;40.53;30.10;;;16.60;99.90;;;;;;4994910;28;20423;-71
2021/09/24 09:31:18;;;;;;;40.50;27.83;;;16.70;99.90;;;;;;4996689;28;20399;-70
2021/09/24 09:33:44;;;;;;;39.00;27.00;;;16.70;99.90;;;;;;4994079;28;20470;-70
2021/09/24 09:36:10;;;;;;;35.80;26.40;;;16.90;99.90;;;;;;4994800;28;20439;-70
2021/09/24 09:38:41;;;;;;;32.57;24.87;;;16.80;99.90;;;;;;4994556;28;20841;-70
2021/09/24 09:41:08;;;;;;;33.13;25.40;;;16.80;99.90;;;;;;4994462;28;20486;-70
2021/09/24 09:43:37;;;;;;;28.20;21.77;;;16.70;99.90;;;;;;4994075;28;20459;-70
2021/09/24 09:46:06;;;;;;;30.53;22.63;;;16.80;99.90;;;;;;4993997;28;20420;-70
2021/09/24 09:48:32;;;;;;;28.10;23.13;;;16.80;99.90;;;;;;4994660;28;20431;-71
2021/09/24 09:50:58;;;;;;;29.83;25.17;;;16.90;99.90;;;;;;4992430;28;20501;-70
2021/09/24 09:53:24;;;;;;;29.87;22.93;;;16.90;99.90;;;;;;4994236;28;20617;-69
2021/09/24 09:56:00;;;;;;;28.97;22.97;;;16.90;99.90;;;;;;4994778;28;20987;-70
2021/09/24 09:58:28;;;;;;;25.55;22.35;;;16.80;99.90;;;;;;4998451;28;20404;-70
2021/09/24 10:01:05;;;;;;;26.40;22.43;;;16.80;99.90;;;;;;4998153;28;20499;-69
2021/09/24 10:03:47;;;;;;;25.63;20.53;;;17.00;99.90;;;;;;4998112;28;20461;-69
2021/09/24 10:06:29;;;;;;;25.53;20.27;;;17.10;99.90;;;;;;4997474;28;20939;-70
2021/09/24 10:09:00;;;;;;;26.93;20.27;;;17.30;99.90;;;;;;4996868;28;20450;-69
2021/09/24 10:11:30;;;;;;;22.53;19.13;;;17.40;99.90;;;;;;4996693;28;20412;-69
2021/09/24 10:14:02;;;;;;;21.40;18.43;;;17.50;99.90;;;;;;4997639;28;20458;-70
2021/09/24 10:16:33;;;;;;;22.47;18.67;;;17.60;99.90;;;;;;4997053;28;20446;-70
2021/09/24 10:19:00;;;;;;;19.80;17.00;;;17.60;99.90;;;;;;4997539;28;20952;-70
2021/09/24 10:21:27;;;;;;;21.17;18.53;;;17.70;99.90;;;;;;4997682;28;20403;-70
2021/09/24 10:23:53;;;;;;;20.27;16.30;;;17.80;99.90;;;;;;4996029;28;20553;-70
2021/09/24 10:26:41;;;;;;;19.57;16.67;;;17.80;99.90;;;;;;4995904;28;20499;-69
2021/09/24 10:29:19;;;;;;;16.97;15.10;;;18.00;99.90;;;;;;4997523;28;20430;-70
2021/09/24 10:31:50;;;;;;;18.60;15.87;;;18.10;99.90;;;;;;4998886;28;20876;-70
2021/09/24 10:34:20;;;;;;;17.17;15.37;;;18.20;99.90;;;;;;4998112;28;20419;-69
2021/09/24 10:36:51;;;;;;;15.63;14.10;;;18.30;99.90;;;;;;5003129;28;20443;-70
2021/09/24 10:39:28;;;;;;;16.97;15.00;;;18.50;99.90;;;;;;5016813;28;20411;-70
2021/09/24 10:42:19;;;;;;;15.03;13.43;;;18.60;99.90;;;;;;5007637;28;20421;-69
2021/09/24 10:45:06;;;;;;;14.93;13.40;;;18.60;99.90;;;;;;5010752;28;20482;-69
2021/09/24 10:47:48;;;;;;;18.63;14.50;;;18.60;99.90;;;;;;5019044;28;20438;-69
2021/09/24 10:50:28;;;;;;;15.90;13.27;;;18.60;99.90;;;;;;5005238;28;20435;-70
2021/09/24 10:53:18;;;;;;;13.73;12.20;;;18.60;99.90;;;;;;4998307;28;20470;-71
2021/09/24 10:55:48;;;;;;;14.57;13.10;;;18.50;99.90;;;;;;4996670;28;20427;-70
2021/09/24 10:58:35;;;;;;;14.27;12.77;;;18.60;99.90;;;;;;4997106;28;20428;-71
2021/09/24 11:01:12;;;;;;;14.57;12.90;;;18.70;99.90;;;;;;4996751;28;20427;-71
2021/09/24 11:03:56;;;;;;;14.77;12.57;;;18.80;99.90;;;;;;4996205;28;20801;-70
2021/09/24 11:06:39;;;;;;;14.43;12.50;;;18.90;99.90;;;;;;4995779;28;20482;-70
2021/09/24 11:09:07;;;;;;;15.57;13.33;;;19.00;99.90;;;;;;4994961;28;20439;-70
2021/09/24 11:11:35;;;;;;;18.17;11.70;;;19.00;99.90;;;;;;4996683;28;20427;-69
2021/09/24 11:14:30;;;;;;;12.40;11.10;;;19.10;99.90;;;;;;4996602;28;20427;-69
2021/09/24 11:16:57;;;;;;;13.80;11.47;;;19.00;99.90;;;;;;4996869;28;20402;-71
2021/09/24 11:19:31;;;;;;;13.60;9.70;;;19.00;99.90;;;;;;4996939;28;21080;-71
2021/09/24 11:22:01;;;;;;;14.63;10.50;;;19.00;99.90;;;;;;4996378;28;20931;-70
2021/09/24 11:24:30;;;;;;;12.40;10.13;;;19.10;99.90;;;;;;4997572;28;20564;-69
2021/09/24 11:27:09;;;;;;;13.00;11.13;;;19.10;99.90;;;;;;4995404;28;20446;-71
2021/09/24 11:29:39;;;;;;;15.50;10.77;;;19.00;99.90;;;;;;4996818;28;20442;-71
2021/09/24 11:32:10;;;;;;;13.23;10.43;;;19.00;99.90;;;;;;4999016;28;20402;-71
2021/09/24 11:34:39;;;;;;;11.83;9.57;;;18.90;99.90;;;;;;4996782;28;20407;-71
2021/09/24 11:37:06;;;;;;;14.95;10.77;;;19.00;99.90;;;;;;4996060;28;20412;-71
2021/09/24 11:39:33;;;;;;;14.20;10.50;;;19.10;99.90;;;;;;4994800;28;20591;-71
2021/09/24 11:42:05;;;;;;;12.23;10.00;;;19.10;99.90;;;;;;4996541;28;20494;-69
2021/09/24 11:44:30;;;;;;;12.23;10.60;;;19.00;99.90;;;;;;4991060;28;20488;-70
2021/09/24 11:46:56;;;;;;;13.03;11.30;;;18.80;99.90;;;;;;5004920;28;20455;-70
2021/09/24 11:49:22;;;;;;;11.87;9.07;;;18.80;99.90;;;;;;5002693;28;20577;-70
2021/09/24 11:52:01;;;;;;;11.83;10.43;;;19.00;99.90;;;;;;5004790;28;20215;-70
2021/09/24 11:54:27;;;;;;;17.77;10.33;;;19.00;99.90;;;;;;5004885;28;20212;-71
2021/09/24 11:56:52;;;;;;;13.27;10.20;;;19.10;99.90;;;;;;4996174;28;20521;-71
2021/09/24 11:59:22;;;;;;;15.23;10.67;;;19.10;99.90;;;;;;4994779;28;20315;-71
2021/09/24 12:01:47;;;;;;;13.83;10.63;;;19.20;99.90;;;;;;4994271;28;20223;-70
2021/09/24 12:04:13;;;;;;;11.70;9.37;;;19.20;99.90;;;;;;4993825;28;20590;-71
2021/09/24 12:06:40;;;;;;;12.97;9.93;;;19.30;99.90;;;;;;4995038;28;20188;-70
2021/09/24 12:09:09;;;;;;;11.97;9.30;;;19.20;99.90;;;;;;4994990;28;20295;-72
2021/09/24 12:11:42;;;;;;;11.90;8.17;;;19.30;99.90;;;;;;4993629;28;20975;-71
2021/09/24 12:14:08;;;;;;;15.07;10.53;;;19.30;99.90;;;;;;4992988;28;20472;-69
2021/09/24 12:16:39;;;;;;;11.93;9.85;;;19.40;99.90;;;;;;4993335;28;20778;-71
2021/09/24 12:19:16;;;;;;;15.07;10.07;;;19.50;99.90;;;;;;5003477;28;20203;-71
2021/09/24 12:21:48;;;;;;;11.87;9.63;;;19.50;99.90;;;;;;5013579;28;20435;-70
2021/09/24 12:24:23;;;;;;;10.83;9.27;;;19.50;99.90;;;;;;4973473;28;20582;-69
2021/09/24 12:27:04;;;;;;;13.93;8.90;;;19.30;99.90;;;;;;4974352;28;20436;-69
2021/09/24 12:29:31;;;;;;;12.50;8.70;;;19.30;99.90;;;;;;4974548;28;20480;-69